createdAt,value
2023-02-24T00:02:32.866Z,99847.85
2023-02-24T00:05:58.273Z,99850.84
2023-02-24T00:09:30.254Z,99847.27
2023-02-24T00:13:30.968Z,99841.08
2023-02-24T00:17:40.370Z,99830.21
2023-02-24T00:21:12.359Z,99823.07
2023-02-24T00:24:40.281Z,99813.63
2023-02-24T00:28:15.139Z,99812.21
2023-02-24T00:31:50.499Z,99805.48
2023-02-24T00:35:23.732Z,99797.41
2023-02-24T00:38:47.321Z,99795.45
2023-02-24T00:42:26.236Z,99792.46
2023-02-24T00:46:38.584Z,99783.83
2023-02-24T00:50:31.333Z,99772.23
2023-02-24T00:54:01.571Z,99765.29
2023-02-24T00:57:42.086Z,99763.34
2023-02-24T01:01:14.395Z,99745.95
2023-02-24T01:05:07.028Z,99749.57
2023-02-24T01:08:59.270Z,99741.16
2023-02-24T01:12:59.673Z,99745.64
2023-02-24T01:16:28.735Z,99742.85
2023-02-24T01:20:14.186Z,99736.17
2023-02-24T01:23:35.783Z,99735.84
2023-02-24T01:27:00.458Z,99723.48
2023-02-24T01:30:23.791Z,99726.78
2023-02-24T01:33:49.417Z,99723.42
2023-02-24T01:37:03.818Z,99719.52
2023-02-24T01:40:40.623Z,99720.71
2023-02-24T01:44:34.026Z,99710.13
2023-02-24T01:48:00.228Z,99711.31
2023-02-24T01:51:52.576Z,99702.98
2023-02-24T01:55:47.097Z,99696.77
2023-02-24T01:58:48.135Z,99690.39
2023-02-24T02:01:58.614Z,99684.02
2023-02-24T02:05:16.780Z,99682.61
2023-02-24T02:08:59.747Z,99683.41
2023-02-24T02:13:01.835Z,99674.57
2023-02-24T02:17:06.221Z,99667.02
2023-02-24T02:21:11.313Z,99671.65
2023-02-24T02:24:52.374Z,99670.44
2023-02-24T02:27:58.291Z,99663.02
2023-02-24T02:31:42.248Z,99660.24
2023-02-24T02:35:38.341Z,99663.17
2023-02-24T02:39:28.331Z,99665.11
2023-02-24T02:43:05.966Z,99657.74
2023-02-24T02:46:23.978Z,99656.52
2023-02-24T02:50:19.323Z,99649.19
2023-02-24T02:54:18.977Z,99650.34
2023-02-24T02:57:53.614Z,99645.78
2023-02-24T03:01:16.594Z,99644.23
2023-02-24T03:04:15.305Z,99637.06
2023-02-24T03:07:49.977Z,99630.20
2023-02-24T03:11:14.198Z,99628.92
2023-02-24T03:14:57.776Z,99627.50
2023-02-24T03:18:24.650Z,99618.15
2023-02-24T03:22:12.284Z,99618.44
2023-02-24T03:24:46.850Z,99614.55
2023-02-24T03:28:20.274Z,99616.67
2023-02-24T03:32:07.062Z,99616.56
2023-02-24T03:35:58.928Z,99618.84
2023-02-24T03:39:51.478Z,99619.24
2023-02-24T03:43:16.850Z,99615.80
2023-02-24T03:46:39.957Z,99609.22
2023-02-24T03:49:37.653Z,99604.55
2023-02-24T03:53:52.958Z,99604.68
2023-02-24T03:58:03.677Z,99601.07
2023-02-24T04:01:55.548Z,99595.75
2023-02-24T04:05:57.133Z,99599.04
2023-02-24T04:09:31.333Z,99591.30
2023-02-24T04:13:36.715Z,99586.49
2023-02-24T04:17:28.569Z,99584.10
2023-02-24T04:21:14.326Z,99587.35
2023-02-24T04:25:06.892Z,99589.36
2023-02-24T04:28:44.939Z,99590.56
2023-02-24T04:32:46.072Z,99584.23
2023-02-24T04:36:55.644Z,99580.64
2023-02-24T04:41:01.770Z,99576.17
2023-02-24T04:44:51.433Z,99575.51
2023-02-24T04:48:26.862Z,99575.72
2023-02-24T04:51:55.862Z,99573.17
2023-02-24T04:56:05.426Z,99569.77
2023-02-24T05:00:07.582Z,99565.63
2023-02-24T05:03:59.745Z,99563.17
2023-02-24T05:06:57.571Z,99561.27
2023-02-24T05:09:42.327Z,99562.11
2023-02-24T05:13:20.045Z,99557.65
2023-02-24T05:17:13.255Z,99552.89
2023-02-24T05:20:39.890Z,99546.73
2023-02-24T05:24:29.654Z,99542.23
2023-02-24T05:27:30.174Z,99540.42
2023-02-24T05:30:56.053Z,99539.76
2023-02-24T05:34:54.919Z,99535.35
2023-02-24T05:38:19.777Z,99532.17
2023-02-24T05:42:22.566Z,99535.58
2023-02-24T05:46:27.075Z,99536.98
2023-02-24T05:49:39.781Z,99543.09
2023-02-24T05:52:56.031Z,99541.20
2023-02-24T05:55:58.778Z,99535.61
2023-02-24T05:59:33.660Z,99535.51
2023-02-24T06:02:51.037Z,99537.27
2023-02-24T06:06:42.833Z,99538.86
2023-02-24T06:10:35.114Z,99528.10
2023-02-24T06:14:23.266Z,99526.08
2023-02-24T06:17:41.356Z,99523.93
2023-02-24T06:21:43.880Z,99523.31
2023-02-24T06:25:24.786Z,99518.67
2023-02-24T06:29:25.061Z,99518.86
2023-02-24T06:32:26.666Z,99524.79
2023-02-24T06:35:15.902Z,99520.06
2023-02-24T06:38:49.190Z,99524.58
2023-02-24T06:42:23.985Z,99522.42
2023-02-24T06:46:33.436Z,99526.64
2023-02-24T06:50:32.898Z,99527.85
2023-02-24T06:54:36.340Z,99515.46
2023-02-24T06:57:50.575Z,99519.48
2023-02-24T07:01:08.942Z,99518.39
2023-02-24T07:04:58.474Z,99528.28
2023-02-24T07:08:32.862Z,99520.20
2023-02-24T07:12:05.115Z,99515.41
2023-02-24T07:16:11.147Z,99507.30
2023-02-24T07:19:47.834Z,99508.45
2023-02-24T07:23:58.565Z,99504.70
2023-02-24T07:28:14.505Z,99498.60
2023-02-24T07:32:24.335Z,99496.67
2023-02-24T07:36:08.596Z,99495.21
2023-02-24T07:40:07.361Z,99503.15
2023-02-24T07:44:19.577Z,99501.98
2023-02-24T07:48:29.674Z,99508.54
2023-02-24T07:52:31.567Z,99499.33
2023-02-24T07:56:01.219Z,99478.34
2023-02-24T07:59:59.669Z,99478.61
2023-02-24T08:03:49.925Z,99483.27
2023-02-24T08:07:58.638Z,99475.41
2023-02-24T08:12:01.447Z,99470.50
2023-02-24T08:15:36.144Z,99473.17
2023-02-24T08:19:38.963Z,99472.23
2023-02-24T08:23:23.798Z,99458.20
2023-02-24T08:27:33.651Z,99450.89
2023-02-24T08:31:28.503Z,99446.81
2023-02-24T08:35:31.099Z,99444.70
2023-02-24T08:39:40.496Z,99431.98
2023-02-24T08:43:55.684Z,99423.82
2023-02-24T08:48:05.404Z,99428.60
2023-02-24T08:51:29.213Z,99427.59
2023-02-24T08:55:21.553Z,99415.29
2023-02-24T08:59:35.336Z,99407.25
2023-02-24T09:03:49.362Z,99411.52
2023-02-24T09:07:22.092Z,99405.81
2023-02-24T09:11:10.301Z,99404.39
2023-02-24T09:15:03.300Z,99409.83
2023-02-24T09:19:11.106Z,99399.19
2023-02-24T09:23:23.591Z,99393.35
2023-02-24T09:27:31.977Z,99391.38
2023-02-24T09:31:15.940Z,99382.00
2023-02-24T09:35:23.969Z,99373.88
2023-02-24T09:39:15.145Z,99372.29
2023-02-24T09:42:47.293Z,99378.63
2023-02-24T09:45:47.207Z,99370.14
2023-02-24T09:49:30.403Z,99377.84
2023-02-24T09:53:41.590Z,99355.63
2023-02-24T09:57:43.738Z,99353.86
2023-02-24T10:01:15.992Z,99348.10
2023-02-24T10:05:03.344Z,99344.63
2023-02-24T10:08:43.479Z,99339.90
2023-02-24T10:12:55.506Z,99337.55
2023-02-24T10:16:45.511Z,99324.32
2023-02-24T10:20:38.102Z,99317.84
2023-02-24T10:24:21.404Z,99314.58
2023-02-24T10:28:33.375Z,99299.70
2023-02-24T10:32:47.328Z,99298.09
2023-02-24T10:36:51.698Z,99294.61
2023-02-24T10:41:04.320Z,99293.20
2023-02-24T10:45:03.372Z,99287.95
2023-02-24T10:49:21.983Z,99279.61
2023-02-24T10:53:54.960Z,99271.61
2023-02-24T10:57:58.984Z,99268.93
2023-02-24T11:01:44.665Z,99256.86
2023-02-24T11:05:57.173Z,99244.18
2023-02-24T11:10:10.425Z,99237.05
2023-02-24T11:14:06.292Z,99230.75
2023-02-24T11:18:11.242Z,99224.41
2023-02-24T11:22:20.962Z,99224.80
2023-02-24T11:26:07.105Z,99222.34
2023-02-24T11:30:19.066Z,99215.94
2023-02-24T11:33:46.232Z,99213.33
2023-02-24T11:37:56.010Z,99205.48
2023-02-24T11:42:07.199Z,99207.36
2023-02-24T11:45:42.852Z,99199.25
2023-02-24T11:49:14.843Z,99190.09
2023-02-24T11:53:16.028Z,99176.20
2023-02-24T11:56:09.344Z,99173.59
2023-02-24T11:59:58.273Z,99174.38
2023-02-24T12:03:51.291Z,99163.82
2023-02-24T12:07:40.585Z,99163.96
2023-02-24T12:11:23.876Z,99161.40
2023-02-24T12:15:06.620Z,99152.13
2023-02-24T12:19:06.588Z,99141.73
2023-02-24T12:22:34.799Z,99137.85
2023-02-24T12:27:05.852Z,99136.08
2023-02-24T12:31:13.676Z,99132.24
2023-02-24T12:35:16.563Z,99126.80
2023-02-24T12:39:31.761Z,99121.82
2023-02-24T12:42:43.305Z,99116.15
2023-02-24T12:46:16.952Z,99116.85
2023-02-24T12:50:00.632Z,99111.00
2023-02-24T12:53:43.779Z,99103.00
2023-02-24T12:58:03.711Z,99093.98
2023-02-24T13:02:17.626Z,99085.73
2023-02-24T13:06:03.069Z,99077.77
2023-02-24T13:10:01.390Z,99079.29
2023-02-24T13:13:47.102Z,99067.55
2023-02-24T13:17:45.066Z,99066.52
2023-02-24T13:22:10.372Z,99068.65
2023-02-24T13:25:59.832Z,99058.55
2023-02-24T13:29:40.910Z,99064.27
2023-02-24T13:33:44.951Z,99053.10
2023-02-24T13:37:39.564Z,99048.12
2023-02-24T13:41:46.575Z,99042.19
2023-02-24T13:45:41.860Z,99030.59
2023-02-24T13:49:27.254Z,99029.91
2023-02-24T13:53:10.471Z,99024.86
2023-02-24T13:56:57.188Z,99018.30
2023-02-24T14:00:25.396Z,99019.15
2023-02-24T14:04:27.304Z,99017.45
2023-02-24T14:08:38.044Z,99014.65
2023-02-24T14:12:09.347Z,99012.75
2023-02-24T14:16:19.037Z,99007.79
2023-02-24T14:20:18.730Z,99002.46
2023-02-24T14:24:02.386Z,98993.66
2023-02-24T14:28:14.555Z,98987.67
2023-02-24T14:31:52.169Z,98983.95
2023-02-24T14:35:48.299Z,98983.48
2023-02-24T14:39:30.468Z,98985.39
2023-02-24T14:43:06.421Z,98981.32
2023-02-24T14:46:55.340Z,98975.00
2023-02-24T14:50:53.883Z,98973.90
2023-02-24T14:55:03.709Z,98963.69
2023-02-24T14:59:13.967Z,98962.20
2023-02-24T15:02:44.160Z,98953.67
2023-02-24T15:06:04.057Z,98954.42
2023-02-24T15:09:38.566Z,98940.90
2023-02-24T15:13:38.194Z,98933.29
2023-02-24T15:17:50.533Z,98929.30
2023-02-24T15:22:01.437Z,98923.23
2023-02-24T15:26:23.106Z,98917.02
2023-02-24T15:30:01.314Z,98909.29
2023-02-24T15:34:16.539Z,98900.21
2023-02-24T15:37:28.601Z,98887.89
2023-02-24T15:40:58.579Z,98887.91
2023-02-24T15:45:05.911Z,98889.14
2023-02-24T15:49:17.365Z,98880.69
2023-02-24T15:53:26.565Z,98877.08
2023-02-24T15:57:10.215Z,98873.45
2023-02-24T16:00:59.915Z,98867.02
2023-02-24T16:05:09.671Z,98859.66
2023-02-24T16:09:00.869Z,98858.51
2023-02-24T16:12:41.178Z,98854.61
2023-02-24T16:16:43.694Z,98848.73
2023-02-24T16:20:35.763Z,98850.72
2023-02-24T16:24:46.190Z,98844.95
2023-02-24T16:28:46.711Z,98842.35
2023-02-24T16:32:53.304Z,98834.72
2023-02-24T16:37:03.267Z,98831.02
2023-02-24T16:40:40.761Z,98826.05
2023-02-24T16:44:50.395Z,98822.98
2023-02-24T16:48:18.422Z,98818.86
2023-02-24T16:51:48.913Z,98811.46
2023-02-24T16:54:59.428Z,98808.09
2023-02-24T16:58:52.814Z,98798.66
2023-02-24T17:03:05.223Z,98792.45
2023-02-24T17:06:42.795Z,98795.85
2023-02-24T17:09:51.717Z,98787.23
2023-02-24T17:13:02.320Z,98787.99
2023-02-24T17:21:21.273Z,98784.31
2023-02-24T17:25:08.236Z,98783.80
2023-02-24T17:28:57.664Z,98778.47
2023-02-24T17:33:07.106Z,98773.67
2023-02-24T17:37:13.162Z,98769.89
2023-02-24T17:41:11.723Z,98768.20
2023-02-24T17:44:56.387Z,98764.05
2023-02-24T17:48:55.899Z,98761.10
2023-02-24T17:53:05.668Z,98757.82
2023-02-24T17:56:57.941Z,98751.61
2023-02-24T18:00:52.964Z,98745.05
2023-02-24T18:05:02.592Z,98735.71
2023-02-24T18:09:00.480Z,98734.75
2023-02-24T18:12:49.905Z,98727.02
2023-02-24T18:16:59.516Z,98729.44
2023-02-24T18:20:44.471Z,98720.10
2023-02-24T18:24:29.471Z,98723.06
2023-02-24T18:28:31.507Z,98720.25
2023-02-24T18:32:41.425Z,98720.62
2023-02-24T18:36:04.875Z,98713.92
2023-02-24T18:40:08.721Z,98712.94
2023-02-24T18:44:18.072Z,98710.23
2023-02-24T18:48:20.607Z,98707.99
2023-02-24T18:52:18.652Z,98696.88
2023-02-24T18:56:07.935Z,98690.41
2023-02-24T19:00:12.094Z,98687.39
2023-02-24T19:04:11.406Z,98679.88
2023-02-24T19:08:13.888Z,98677.89
2023-02-24T19:12:14.155Z,98672.61
2023-02-24T19:16:23.956Z,98668.86
2023-02-24T19:20:16.625Z,98665.61
2023-02-24T19:23:50.508Z,98659.91
2023-02-24T19:28:00.609Z,98658.81
2023-02-24T19:32:10.207Z,98647.84
2023-02-24T19:36:18.407Z,98646.45
2023-02-24T19:40:28.016Z,98638.16
2023-02-24T19:44:00.780Z,98635.86
2023-02-24T19:48:10.198Z,98632.00
2023-02-24T19:51:56.865Z,98631.23
2023-02-24T19:55:39.617Z,98627.86
2023-02-24T19:59:32.311Z,98618.84
2023-02-24T20:03:40.256Z,98614.42
2023-02-24T20:07:50.095Z,98613.17
2023-02-24T20:11:59.563Z,98616.94
2023-02-24T20:15:40.467Z,98609.64
2023-02-24T20:19:43.024Z,98610.23
2023-02-24T20:23:55.387Z,98606.52
2023-02-24T20:28:04.938Z,98601.34
2023-02-24T20:32:14.869Z,98603.87
2023-02-24T20:36:24.892Z,98609.95
2023-02-24T20:40:07.400Z,98600.26
2023-02-24T20:43:58.519Z,98593.84
2023-02-24T20:47:53.434Z,98589.89
2023-02-24T20:51:44.491Z,98582.14
2023-02-24T20:55:54.149Z,98580.77
2023-02-24T21:00:02.549Z,98580.22
2023-02-24T21:04:13.140Z,98576.95
2023-02-24T21:08:22.670Z,98584.79
2023-02-24T21:12:36.487Z,98579.60
2023-02-24T21:16:28.241Z,98576.94
2023-02-24T21:20:27.874Z,98570.98
2023-02-24T21:24:33.313Z,98575.14
2023-02-24T21:28:43.171Z,98571.30
2023-02-24T21:32:52.714Z,98569.52
2023-02-24T21:36:51.015Z,98562.74
2023-02-24T21:41:00.668Z,98560.42
2023-02-24T21:45:02.957Z,98555.52
2023-02-24T21:49:12.532Z,98554.25
2023-02-24T21:53:21.200Z,98556.71
2023-02-24T21:57:30.683Z,98558.19
2023-02-24T22:01:40.269Z,98553.98
2023-02-24T22:05:49.805Z,98544.81
2023-02-24T22:09:35.120Z,98535.48
2023-02-24T22:13:37.171Z,98535.59
2023-02-24T22:17:37.985Z,98527.83
2023-02-24T22:21:45.549Z,98520.73
2023-02-24T22:25:43.997Z,98525.08
2023-02-24T22:29:53.431Z,98523.29
2023-02-24T22:34:03.050Z,98516.20
2023-02-24T22:38:12.523Z,98518.05
2023-02-24T22:42:22.289Z,98522.73
2023-02-24T22:46:37.513Z,98519.38
2023-02-24T22:50:47.294Z,98512.28
2023-02-24T22:54:56.519Z,98503.50
2023-02-24T22:59:05.933Z,98497.02
2023-02-24T23:02:48.550Z,98491.46
2023-02-24T23:06:40.011Z,98490.96
2023-02-24T23:10:49.895Z,98486.53
2023-02-24T23:14:59.556Z,98485.63
2023-02-24T23:18:52.079Z,98483.36
2023-02-24T23:23:01.668Z,98481.08
2023-02-24T23:27:03.888Z,98470.27
2023-02-24T23:31:03.304Z,98464.94
2023-02-24T23:35:05.646Z,98461.98
2023-02-24T23:39:05.153Z,98457.10
2023-02-24T23:42:54.368Z,98455.74
2023-02-24T23:47:04.108Z,98448.53
2023-02-24T23:51:12.412Z,98446.04
2023-02-24T23:55:02.125Z,98443.17
2023-02-24T23:59:11.539Z,98433.42
